Terminal Aerodrome Forecast
Issued by NWS Albany, NY

Home | Current Version | Previous Version | Text Only | Print | Product List | Glossary On
Versions: 1 2 3 4 5 6 7 8 9 10 11 12 13 14
155
FTUS41 KALY 241137
TAFGFL
TAF
KGFL 241137Z 2412/2512 23006KT P6SM VCSH SCT025 OVC050
      TEMPO 2412/2413 4SM -SHRA BKN025
     FM241500 27012G18KT P6SM SCT040
     FM250000 25004KT P6SM FEW150=

USA.gov is the U.S. government's official web portal to all federal, state and local government web resources and services.